Weather at Kendall River Airport

Public forecast

Using degrees Celsius for public forecast. Weather courtesy of forecast.io.

Closest aviation weather report (METAR) to Kendall River Airport

Closest report is Gove Airport, 323.2 nm (598.5 km) WNW.

2024/05/19 21:00 (retrieved 36 minutes ago)

YPGV 192100Z AUTO 13014KT 9999 // BKN040 BKN046 26/19 Q1011

Closest aviation forecast (TAF) to Kendall River Airport

Closest forecast is Gove Airport, 323.2 nm (598.5 km) WNW.

2024/05/19 20:00 (retrieved 2 hours ago)

TAF YPGV 191903Z 1920/2008 13016KT 9999 SCT030